createdAt,value
2017-08-08T00:01:36.445Z,15.04
2017-08-08T00:21:36.867Z,57.97
2017-08-08T00:41:37.417Z,77.48
2017-08-08T01:01:37.929Z,82.58
2017-08-08T01:21:38.426Z,77.55
2017-08-08T01:41:38.969Z,72.63
2017-08-08T02:01:39.460Z,20.93
2017-08-08T02:21:39.867Z,21.15
2017-08-08T03:01:40.839Z,57.80
2017-08-08T03:21:41.376Z,99.14
2017-08-08T03:40:58.422Z,58.20
2017-08-08T04:00:57.943Z,89.30
2017-08-08T04:20:58.419Z,62.87
2017-08-08T04:45:59.099Z,84.72
2017-08-08T05:05:59.497Z,99.86
2017-08-08T05:26:00.015Z,95.79
2017-08-08T05:46:00.541Z,99.75
2017-08-08T06:06:00.921Z,91.64
2017-08-08T06:26:01.375Z,36.25
2017-08-08T06:46:01.863Z,2.86
2017-08-08T07:06:02.398Z,36.71
2017-08-08T07:26:02.894Z,0.00
2017-08-08T07:46:03.410Z,50.03
2017-08-08T08:06:03.920Z,100.00
2017-08-08T08:26:04.459Z,100.00
2017-08-08T08:46:05.011Z,100.00
2017-08-08T09:06:05.398Z,100.00
2017-08-08T09:26:05.971Z,100.00
2017-08-08T09:46:06.480Z,100.00
2017-08-08T10:06:06.987Z,100.00
2017-08-08T10:26:07.444Z,100.00
2017-08-08T10:46:08.008Z,100.00
2017-08-08T11:06:08.471Z,100.00
2017-08-08T11:26:09.094Z,100.00
2017-08-08T11:46:09.642Z,100.00
2017-08-08T12:06:10.161Z,100.00
2017-08-08T12:26:10.629Z,100.00
2017-08-08T12:46:10.986Z,100.00
2017-08-08T13:06:11.526Z,100.00
2017-08-08T13:26:12.065Z,100.00
2017-08-08T13:46:12.638Z,100.00
2017-08-08T14:06:13.112Z,100.00
2017-08-08T14:26:13.665Z,100.00
2017-08-08T14:46:14.188Z,100.00
2017-08-08T15:06:14.625Z,100.00
2017-08-08T15:26:14.978Z,100.00
2017-08-08T15:46:15.518Z,83.63
2017-08-08T16:06:15.947Z,24.10
2017-08-08T16:26:16.385Z,24.26
2017-08-08T16:46:16.895Z,1.02
2017-08-08T17:06:17.398Z,18.16
2017-08-08T17:26:17.933Z,98.18
2017-08-08T17:46:18.501Z,100.00
2017-08-08T18:06:18.919Z,98.06
2017-08-08T18:26:19.474Z,99.99
2017-08-08T18:46:19.991Z,100.00
2017-08-08T19:06:20.342Z,83.28
2017-08-08T19:42:05.719Z,23.95
2017-08-08T20:02:06.243Z,98.61
2017-08-08T20:22:06.686Z,99.75
2017-08-08T20:42:07.185Z,94.83
2017-08-08T21:02:07.716Z,99.97
2017-08-08T21:22:08.236Z,99.53
2017-08-08T21:42:08.744Z,76.42
2017-08-08T22:02:09.129Z,28.96
2017-08-08T22:22:09.648Z,27.19
2017-08-08T22:42:10.015Z,22.92
2017-08-08T23:02:10.496Z,21.09
2017-08-08T23:22:11.050Z,20.68
2017-08-08T23:42:11.469Z,27.36
